• Join FlightAware (Why Join?)
  • Login
  • US Flag 
12:38AM EDT


 

Airport Tracker/Info


-or-


 

Live Flight TrackerFlight Track Log ✈ VH-FGS ✈ 25-Jul-2013 ✈ YPAG / PUG - YPAD / ADL

Flight Track Log - Related Links

Times and Time Zones

All times are in EDT time to prevent confusion due to time zone crossing. See the VH-FGS flight status page for this flight to view local times or setup timezone preferences in your user account.

Time Position Orientation Groundspeed Altitude Reporting Facility
EDT Latitude Longitude Course Direction KTS MPH feet Rate Location/Type
08:22AM -32.6595 137.7664 219° Southwest 300  Level Aus ATC (Calculated)
08:23AM -32.7310 137.7897 330° Northwest 3,060 Descending Aus ATC (Calculated)
08:24AM -32.6753 137.7511 177° South 156 180 7,300 4,560 Climbing Aus ATC (RADAR)
08:25AM -32.6958 137.7522 177° South 152 175 8,000 1,320 Climbing Aus ATC (RADAR)
08:25AM -32.7241 137.7640 161° South 162 186 8,900 1,440 Climbing Aus ATC (RADAR)
08:26AM -32.7485 137.7742 161° South 161 185 9,800 1,260 Climbing Aus ATC (RADAR)
08:26AM -32.7702 137.7805 166° South 162 186 10,300 1,020 Climbing Aus ATC (RADAR)
08:27AM -32.8010 137.7880 168° South 169 194 11,000 1,200 Climbing Aus ATC (RADAR)
08:28AM -32.8261 137.7990 160° South 166 191 11,800 1,200 Climbing Aus ATC (RADAR)
08:28AM -32.8471 137.8093 158° South 164 189 12,300 1,080 Climbing Aus ATC (RADAR)
08:29AM -32.8773 137.8154 170° South 165 190 13,100 1,020 Climbing Aus ATC (RADAR)
08:29AM -32.9031 137.8249 163° South 167 192 13,600 960 Climbing Aus ATC (RADAR)
08:30AM -32.9333 137.8347 165° South 170 196 14,300 1,020 Climbing Aus ATC (RADAR)
08:31AM -32.9787 137.8511 163° South 172 198 15,300 960 Climbing Aus ATC (RADAR)
08:32AM -33.0094 137.8601 166° South 171 197 15,900 900 Climbing Aus ATC (RADAR)
08:33AM -33.0546 137.8755 164° South 170 196 16,800 900 Climbing Aus ATC (RADAR)
08:34AM -33.0895 137.8858 166° South 174 200 17,500 1,020 Climbing Aus ATC (RADAR)
08:34AM -33.1159 137.8967 161° South 173 199 18,200 1,080 Climbing Aus ATC (RADAR)
08:35AM -33.1476 137.9060 166° South 177 204 18,900 900 Climbing Aus ATC (RADAR)
08:35AM -33.1722 137.9134 166° South 183 211 19,300 420 Climbing Aus ATC (RADAR)
08:36AM -33.2033 137.9243 164° South 201 231 19,400  Climbing Aus ATC (RADAR)
08:37AM -33.2438 137.9384 164° South 227 261 19,300 -120 Descending Aus ATC (RADAR)
08:37AM -33.2818 137.9524 163° South 244 281 19,300  Level Aus ATC (RADAR)
08:38AM -33.3156 137.9635 165° South 250 288 19,300  Level Aus ATC (RADAR)
08:38AM -33.3612 137.9782 165° South 254 292 19,300  Level Aus ATC (RADAR)
08:39AM -33.4012 137.9925 163° South 257 296 19,300  Level Aus ATC (RADAR)
08:40AM -33.4475 138.0074 165° South 259 298 19,300  Level Aus ATC (RADAR)
08:40AM -33.4823 138.0194 164° South 261 300 19,300  Level Aus ATC (RADAR)
08:41AM -33.5232 138.0325 165° South 262 302 19,300  Level Aus ATC (RADAR)
08:41AM -33.5682 138.0510 161° South 258 297 19,300  Level Aus ATC (RADAR)
08:42AM -33.6032 138.0619 165° South 260 299 19,300  Level Aus ATC (RADAR)
08:42AM -33.6434 138.0745 165° South 258 297 19,300  Level Aus ATC (RADAR)
08:43AM -33.6888 138.0908 163° South 257 296 19,300  Level Aus ATC (RADAR)
08:44AM -33.7232 138.1023 164° South 258 297 19,300  Level Aus ATC (RADAR)
08:44AM -33.7689 138.1174 165° South 256 295 19,300  Level Aus ATC (RADAR)
08:45AM -33.8032 138.1302 163° South 258 297 19,300  Level Aus ATC (RADAR)
08:45AM -33.8436 138.1427 166° South 259 298 19,300  Level Aus ATC (RADAR)
08:46AM -33.8952 138.1602 164° South 258 297 19,300  Level Aus ATC (RADAR)
08:47AM -33.9289 138.1726 163° South 254 292 19,300  Level Aus ATC (RADAR)
08:47AM -33.9690 138.1860 165° South 256 295 19,300  Level Aus ATC (RADAR)
08:48AM -34.0146 138.2017 164° South 256 295 19,300  Level Aus ATC (RADAR)
08:48AM -34.0494 138.2129 165° South 259 298 19,300  Level Aus ATC (RADAR)
08:49AM -34.0895 138.2276 163° South 259 298 19,300  Level Aus ATC (RADAR)
08:49AM -34.1300 138.2411 165° South 260 299 19,300  Level Aus ATC (RADAR)
08:50AM -34.1702 138.2548 164° South 258 297 19,300  Level Aus ATC (RADAR)
08:51AM -34.2161 138.2708 164° South 258 297 19,300  Level Aus ATC (RADAR)
08:52AM -34.2855 138.2939 165° South 259 298 19,300 -300 Level Aus ATC (RADAR)
08:52AM -34.3265 138.3016 171° South 257 296 18,900 -1,380 Descending Aus ATC (RADAR)
08:53AM -34.3688 138.3103 170° South 263 303 17,700 -2,040 Descending Aus ATC (RADAR)
08:53AM -34.4047 138.3179 170° South 263 303 16,700 -1,980 Descending Aus ATC (RADAR)
08:54AM -34.4529 138.3282 170° South 263 303 15,400 -1,920 Descending Aus ATC (RADAR)
08:55AM -34.4951 138.3372 170° South 263 303 14,300 -1,980 Descending Aus ATC (RADAR)
08:55AM -34.5309 138.3448 170° South 262 302 13,300 -1,980 Descending Aus ATC (RADAR)
08:56AM -34.5775 138.3548 170° South 256 295 12,000 -2,040 Descending Aus ATC (RADAR)
08:56AM -34.6176 138.3633 170° South 251 289 10,800 -2,220 Descending Aus ATC (RADAR)
08:57AM -34.6582 138.3719 170° South 254 292 9,500 -2,340 Descending Aus ATC (RADAR)
08:57AM -34.7003 138.3806 170° South 261 300 8,100 -2,400 Descending Aus ATC (RADAR)
08:58AM -34.7356 138.3886 170° South 258 297 6,900 -2,400 Descending Aus ATC (RADAR)
08:59AM -34.7805 138.3983 170° South 242 278 5,300 -2,340 Descending Aus ATC (RADAR)
08:59AM -34.8167 138.4058 170° South 225 259 4,000 -2,040 Descending Aus ATC (RADAR)
09:00AM -34.8803 138.4195 170° South 215 247 1,900 -1,500 Descending Aus ATC (RADAR)
09:01AM -34.9142 138.4709 129° Southeast 188 216 900 -840 Descending Aus ATC (RADAR)
09:02AM -34.9365 138.5129 123° Southeast 105 121 200 -600 Descending Aus ATC (RADAR)